メインページ
METAR-TAF:

METAR-TAF

空港 :

Lytton, ブリティッシュコロンビア州, カナダ

緯度: 50-14N, 経度: 121-35W, 海抜: 229m

現時点の気象観測

当レポートは15分前の09:22(UTC)に作成
の風 5kt
気温 2°C
湿度 100%
気圧 1021 hPa
視程: 3.6km
高度100ftの雲はほとんどない
高度17000ftの雲は散在している

METAR: CWLY 140922Z AUTO 18005KT 2 1/4SM BR FEW001 SCT170 02/02 A3015 RMK SLP218

時間: 01:37 (09:37 UTC)


TAF: 見つかりません

4,000以上の空港の気象観測と天気予報(METAR報とTAF報)

利用可能な観測所は地図上に黄色い丸と赤い丸で示す。

丸の上にカーソルを重ねると観測所名を参照できる。

次にクリックすると気象観測と天気予報を参照できる。

マップの切り替え:黒色「×」印の緑ボタンをクリックして拡大、「-」印の緑ボタンをクリックして縮小、緑色の三角印をクリックして隣りの地図に切り替え


METAR-TAF: